Time;durP1;ratioP1;P1;durP2;ratioP2;P2;SDS_P1;SDS_P2;PMS_P1;PMS_P2;Temp;Humidity;BMP_temperature;BMP_pressure;BME280_temperature;BME280_humidity;BME280_pressure;Samples;Min_cycle;Max_cycle;Signal;HPM_P1;HPM_P2
2021/09/13 00:01:25;;;;;;;;;9.25;9.25;;;;;18.04;62.41;101592.84;4922883;28;45386;-85
2021/09/13 00:03:50;;;;;;;;;8.00;8.00;;;;;18.03;61.99;101596.41;4923252;28;45435;-86
2021/09/13 00:06:16;;;;;;;;;7.00;7.00;;;;;17.98;61.60;101589.53;4910922;28;46439;-86
2021/09/13 00:08:42;;;;;;;;;8.75;7.25;;;;;17.97;61.72;101603.78;4902767;28;45358;-88
2021/09/13 00:11:07;;;;;;;;;6.75;6.75;;;;;17.94;61.50;101598.63;4906290;28;45491;-88
2021/09/13 00:13:32;;;;;;;;;8.50;8.50;;;;;17.88;61.53;101589.16;4923182;28;45333;-87
2021/09/13 00:15:58;;;;;;;;;11.50;9.25;;;;;17.92;61.60;101595.19;4917298;28;45449;-88
2021/09/13 00:18:23;;;;;;;;;8.00;8.00;;;;;17.92;61.58;101589.88;4923224;28;45299;-87
2021/09/13 00:20:49;;;;;;;;;8.00;7.50;;;;;17.95;61.31;101594.19;4920392;28;45552;-88
2021/09/13 00:23:14;;;;;;;;;5.25;5.25;;;;;17.98;61.50;101599.31;4900302;29;46566;-87
2021/09/13 00:25:39;;;;;;;;;6.00;6.00;;;;;17.99;62.12;101582.44;4908458;28;45456;-87
2021/09/13 00:28:05;;;;;;;;;7.00;6.25;;;;;17.97;61.90;101585.19;4921379;28;45153;-92
2021/09/13 00:30:30;;;;;;;;;7.00;7.00;;;;;17.98;61.86;101578.03;4923057;28;45495;-86
2021/09/13 00:32:56;;;;;;;;;6.25;6.25;;;;;17.99;61.64;101585.09;4922986;28;45175;-90
2021/09/13 00:35:25;;;;;;;;;7.50;7.00;;;;;17.94;62.62;101566.72;4917842;28;46279;-87
2021/09/13 00:37:50;;;;;;;;;9.25;8.50;;;;;17.92;62.01;101565.94;4922588;28;45399;-86
2021/09/13 00:40:15;;;;;;;;;8.50;7.00;;;;;17.94;62.69;101572.03;4923001;28;45994;-87
2021/09/13 00:42:41;;;;;;;;;7.50;5.00;;;;;17.93;62.59;101564.13;4892712;28;45885;-87
2021/09/13 00:45:07;;;;;;;;;8.00;8.00;;;;;17.90;61.98;101561.63;4918987;28;46294;-87
2021/09/13 00:47:32;;;;;;;;;6.75;6.75;;;;;17.91;61.83;101558.88;4922613;28;45387;-86
2021/09/13 00:49:58;;;;;;;;;8.50;6.25;;;;;17.90;61.99;101554.53;4894266;28;45852;-88
2021/09/13 00:52:23;;;;;;;;;10.00;8.50;;;;;17.91;62.34;101556.22;4893855;28;46124;-87
2021/09/13 00:54:49;;;;;;;;;6.00;5.25;;;;;17.90;62.55;101549.19;4910570;28;45248;-85
2021/09/13 00:57:14;;;;;;;;;6.25;6.25;;;;;17.90;62.10;101559.84;4922414;28;45276;-84
2021/09/13 00:59:40;;;;;;;;;7.50;6.75;;;;;17.85;62.85;101553.91;4910748;28;45266;-84
2021/09/13 01:02:05;;;;;;;;;5.75;5.75;;;;;17.85;62.56;101553.91;4904882;28;46227;-86
2021/09/13 01:04:31;;;;;;;;;10.00;6.00;;;;;17.81;62.66;101552.31;4903393;28;47164;-86
2021/09/13 01:06:56;;;;;;;;;5.50;5.50;;;;;17.77;62.59;101557.81;4922329;28;45343;-86
2021/09/13 01:09:22;;;;;;;;;7.25;7.25;;;;;17.73;62.58;101556.22;4911282;28;45228;-93
2021/09/13 01:11:49;;;;;;;;;8.75;6.25;;;;;17.74;62.22;101560.59;4916581;28;45490;-94
2021/09/13 01:14:16;;;;;;;;;7.00;7.00;;;;;17.76;62.56;101573.81;4898166;28;47232;-94
2021/09/13 01:16:42;;;;;;;;;5.75;5.00;;;;;17.72;62.82;101569.59;4898450;29;45266;-94
2021/09/13 01:19:08;;;;;;;;;9.25;8.50;;;;;17.73;63.08;101574.81;4905060;28;45222;-92
2021/09/13 01:21:38;;;;;;;;;7.00;7.00;;;;;17.70;62.77;101564.38;4902191;28;45857;-93
2021/09/13 01:24:04;;;;;;;;;7.25;7.25;;;;;17.72;63.21;101570.47;4919775;28;47791;-90
2021/09/13 01:26:29;;;;;;;;;5.25;5.25;;;;;17.69;63.49;101565.28;4921149;28;45427;-91
2021/09/13 01:28:55;;;;;;;;;8.00;8.00;;;;;17.71;62.90;101560.75;4928267;28;45410;-91
2021/09/13 01:31:20;;;;;;;;;7.25;6.00;;;;;17.71;63.07;101551.91;4932700;28;45333;-91
2021/09/13 01:33:46;;;;;;;;;5.75;5.75;;;;;17.70;63.09;101553.75;4918033;28;46122;-91
2021/09/13 01:36:11;;;;;;;;;8.00;7.50;;;;;17.74;63.16;101555.28;4905115;28;45357;-91
2021/09/13 01:38:37;;;;;;;;;8.00;6.00;;;;;17.74;63.06;101557.09;4922387;28;45404;-89
2021/09/13 01:41:02;;;;;;;;;8.75;6.50;;;;;17.68;63.17;101542.28;4936656;28;45572;-89
2021/09/13 01:43:27;;;;;;;;;6.75;6.75;;;;;17.69;63.42;101546.69;4921073;28;45682;-89
2021/09/13 01:45:53;;;;;;;;;9.75;9.75;;;;;17.63;63.36;101549.66;4915399;28;45339;-90
2021/09/13 01:48:18;;;;;;;;;8.75;6.75;;;;;17.59;63.24;101540.97;4921898;28;45291;-89
2021/09/13 01:50:44;;;;;;;;;6.25;6.25;;;;;17.56;63.54;101546.44;4910940;28;45559;-89
2021/09/13 01:53:09;;;;;;;;;6.00;6.00;;;;;17.51;63.39;101544.00;4920175;28;45235;-90
2021/09/13 01:55:34;;;;;;;;;10.00;7.75;;;;;17.47;63.76;101546.91;4916642;28;45430;-91
2021/09/13 01:58:00;;;;;;;;;7.00;6.25;;;;;17.40;63.93;101546.34;4925407;28;45275;-91
2021/09/13 02:00:26;;;;;;;;;5.75;5.75;;;;;17.35;63.55;101551.88;4925151;28;45447;-89
2021/09/13 02:02:51;;;;;;;;;5.75;5.75;;;;;17.34;63.87;101551.94;4938240;28;47099;-90
2021/09/13 02:05:16;;;;;;;;;9.00;6.00;;;;;17.26;64.25;101549.69;4924643;28;45319;-89
2021/09/13 02:07:42;;;;;;;;;7.00;7.00;;;;;17.23;64.48;101557.78;4925211;28;45247;-90
2021/09/13 02:10:08;;;;;;;;;8.00;7.25;;;;;17.22;64.19;101562.25;4925254;28;45600;-92
2021/09/13 02:12:33;;;;;;;;;9.00;7.00;;;;;17.21;64.65;101563.19;4919234;28;45327;-93
2021/09/13 02:14:59;;;;;;;;;9.25;8.25;;;;;17.14;64.46;101554.59;4920215;28;45471;-91
2021/09/13 02:17:24;;;;;;;;;7.00;7.00;;;;;17.16;64.70;101554.59;4920753;28;45340;-92
2021/09/13 02:19:49;;;;;;;;;9.75;7.75;;;;;17.07;64.18;101559.34;4922821;28;45713;-84
2021/09/13 02:22:16;;;;;;;;;5.25;5.25;;;;;17.06;65.04;101546.16;4909986;28;46139;-83
2021/09/13 02:24:41;;;;;;;;;12.00;7.75;;;;;17.05;64.86;101550.59;4914881;28;45408;-84
2021/09/13 02:27:07;;;;;;;;;8.75;7.75;;;;;17.04;64.54;101550.69;4892772;29;45450;-85
2021/09/13 02:29:33;;;;;;;;;6.00;5.00;;;;;17.01;64.84;101550.81;4918269;28;45479;-83
2021/09/13 02:31:58;;;;;;;;;11.25;9.25;;;;;16.96;65.08;101546.56;4905761;28;45387;-82
2021/09/13 02:34:24;;;;;;;;;7.00;7.00;;;;;16.94;65.07;101544.97;4922895;28;45211;-82
2021/09/13 02:36:49;;;;;;;;;6.25;6.25;;;;;16.94;64.79;101547.59;4925075;28;45225;-82
2021/09/13 02:39:14;;;;;;;;;9.25;7.50;;;;;16.94;65.61;101542.31;4924585;28;45239;-82
2021/09/13 02:41:40;;;;;;;;;6.25;6.25;;;;;16.93;65.32;101549.41;4923434;28;47490;-82
2021/09/13 02:44:05;;;;;;;;;7.75;7.75;;;;;16.92;65.37;101549.44;4923875;28;45787;-83
2021/09/13 02:46:31;;;;;;;;;9.50;7.25;;;;;16.95;65.17;101557.28;4924611;28;45284;-90
2021/09/13 02:48:56;;;;;;;;;6.75;6.75;;;;;16.96;65.64;101553.72;4907400;28;47137;-91
2021/09/13 02:51:22;;;;;;;;;11.75;9.25;;;;;16.98;65.20;101547.38;4894695;28;45968;-88
2021/09/13 02:53:47;;;;;;;;;9.25;8.25;;;;;16.97;65.29;101544.78;4922795;28;45245;-88
2021/09/13 02:56:13;;;;;;;;;8.75;7.50;;;;;17.00;65.78;101552.63;4924617;28;45281;-86
2021/09/13 02:58:38;;;;;;;;;8.25;7.00;;;;;17.00;65.84;101542.00;4924496;28;45476;-86
2021/09/13 03:01:03;;;;;;;;;8.00;8.00;;;;;17.03;65.35;101538.34;4911734;28;45563;-85
2021/09/13 03:03:29;;;;;;;;;11.00;9.00;;;;;17.04;65.25;101543.56;4920076;28;45427;-87
2021/09/13 03:05:54;;;;;;;;;7.00;7.00;;;;;17.06;65.23;101544.34;4923908;28;45358;-85
2021/09/13 03:08:20;;;;;;;;;7.00;7.00;;;;;17.07;65.42;101531.94;4924302;28;45465;-85
2021/09/13 03:10:45;;;;;;;;;9.25;9.25;;;;;17.06;65.73;101531.06;4924110;28;46256;-85
2021/09/13 03:13:11;;;;;;;;;10.00;10.00;;;;;17.06;65.58;101524.91;4923034;28;45349;-85
2021/09/13 03:15:36;;;;;;;;;8.25;7.75;;;;;17.05;65.61;101521.41;4923994;28;45325;-85
2021/09/13 03:18:02;;;;;;;;;8.25;8.00;;;;;17.03;65.53;101525.06;4916705;28;45361;-85
2021/09/13 03:20:27;;;;;;;;;7.75;6.75;;;;;17.02;65.16;101520.66;4916590;28;45461;-86
2021/09/13 03:22:53;;;;;;;;;6.50;6.50;;;;;17.05;65.22;101532.00;4923999;28;45340;-90
2021/09/13 03:25:18;;;;;;;;;9.50;8.25;;;;;17.03;65.13;101531.22;4924190;28;45448;-87
2021/09/13 03:27:44;;;;;;;;;8.25;7.50;;;;;17.00;65.22;101526.06;4922925;28;45235;-86
2021/09/13 03:30:10;;;;;;;;;7.75;7.75;;;;;16.97;64.71;101528.84;4923814;28;46102;-86
2021/09/13 03:32:36;;;;;;;;;9.00;9.00;;;;;16.91;65.20;101521.19;4920908;28;45796;-87
2021/09/13 03:35:02;;;;;;;;;5.50;3.50;;;;;16.96;65.42;101532.47;4912212;28;45216;-91
2021/09/13 03:37:27;;;;;;;;;8.00;7.50;;;;;16.85;65.24;101517.03;4923005;28;45280;-91
2021/09/13 03:39:53;;;;;;;;;13.00;7.00;;;;;16.84;65.43;101521.47;4916049;28;45435;-88
2021/09/13 03:42:18;;;;;;;;;9.50;9.50;;;;;16.76;65.28;101515.69;4918863;28;45464;-90
2021/09/13 03:44:44;;;;;;;;;10.00;9.75;;;;;16.73;65.66;101518.47;4923729;28;45417;-90
2021/09/13 03:47:09;;;;;;;;;7.75;7.50;;;;;16.79;65.52;101525.28;4923609;28;45352;-90
2021/09/13 03:49:34;;;;;;;;;8.50;8.50;;;;;16.71;65.56;101525.66;4904312;28;47043;-89
2021/09/13 03:52:00;;;;;;;;;9.75;9.50;;;;;16.64;66.04;101523.25;4902155;28;45664;-89
2021/09/13 03:54:25;;;;;;;;;9.00;8.25;;;;;16.64;66.07;101523.25;4923645;28;45364;-88
2021/09/13 03:56:51;;;;;;;;;6.75;6.75;;;;;16.61;65.90;101525.22;4914779;28;45914;-88
2021/09/13 03:59:16;;;;;;;;;11.00;7.00;;;;;16.60;66.07;101523.47;4918677;28;46062;-87
2021/09/13 04:01:42;;;;;;;;;10.75;8.25;;;;;16.57;65.95;101524.47;4904751;28;46014;-88
2021/09/13 04:04:08;;;;;;;;;8.50;6.25;;;;;16.55;65.98;101523.69;4923463;28;45272;-88
2021/09/13 04:11:55;;;;;;;;;10.00;8.25;;;;;16.45;66.48;101517.06;4912868;28;45222;-86
2021/09/13 04:14:25;;;;;;;;;6.75;6.75;;;;;16.44;66.74;101518.03;4914410;28;45408;-86
2021/09/13 04:16:51;;;;;;;;;11.00;9.25;;;;;16.44;66.43;101526.84;4923135;28;45333;-91
2021/09/13 04:19:17;;;;;;;;;10.00;8.50;;;;;16.40;66.67;101522.59;4904264;28;47347;-91
2021/09/13 04:21:43;;;;;;;;;10.00;7.50;;;;;16.34;66.16;101515.78;4920254;28;45803;-85
2021/09/13 04:24:08;;;;;;;;;9.25;9.25;;;;;16.31;66.42;101513.28;4935916;28;45439;-86
2021/09/13 04:26:34;;;;;;;;;8.75;8.50;;;;;16.28;66.62;101510.75;4909353;28;45193;-86
2021/09/13 04:28:59;;;;;;;;;8.25;8.25;;;;;16.24;66.99;101511.84;4919328;28;45517;-88
2021/09/13 04:31:27;;;;;;;;;8.75;7.50;;;;;16.26;67.15;101515.28;4911649;28;46078;-83
2021/09/13 04:33:52;;;;;;;;;10.00;8.25;;;;;16.18;66.80;101505.00;4923203;28;45164;-85
2021/09/13 04:36:17;;;;;;;;;8.00;7.00;;;;;16.17;67.22;101503.28;4907769;28;45165;-83
2021/09/13 04:38:43;;;;;;;;;9.25;8.25;;;;;16.22;67.27;101511.03;4903753;29;46417;-85
2021/09/13 04:41:09;;;;;;;;;13.25;10.75;;;;;16.16;67.16;101507.72;4903727;28;45466;-83
2021/09/13 04:43:34;;;;;;;;;9.75;7.75;;;;;16.15;67.15;101505.16;4912328;28;45934;-83
2021/09/13 04:45:59;;;;;;;;;9.75;9.75;;;;;16.12;67.53;101506.16;4922352;28;45402;-84
2021/09/13 04:48:25;;;;;;;;;2.00;1.00;;;;;16.12;67.27;101507.94;4917151;28;45329;-86
2021/09/13 04:50:52;;;;;;;;;11.00;11.00;;;;;16.12;67.36;101507.94;4922227;28;45412;-85
2021/09/13 04:53:19;;;;;;;;;9.50;9.50;;;;;16.11;67.37;101512.38;4916832;28;45434;-86
2021/09/13 04:55:44;;;;;;;;;6.75;6.75;;;;;16.10;67.49;101507.16;4922706;28;45260;-86
2021/09/13 04:58:09;;;;;;;;;7.00;6.75;;;;;16.07;67.60;101500.19;4922540;28;46584;-85
2021/09/13 05:00:35;;;;;;;;;8.75;8.75;;;;;16.08;67.45;101507.19;4910983;28;46014;-86
2021/09/13 05:03:00;;;;;;;;;12.50;7.75;;;;;16.06;67.52;101504.63;4909346;28;45439;-87
2021/09/13 05:05:25;;;;;;;;;9.50;9.25;;;;;16.03;67.55;101510.03;4935248;28;46764;-88
2021/09/13 05:07:51;;;;;;;;;11.50;9.50;;;;;16.04;67.56;101508.25;4937004;28;46932;-90
2021/09/13 05:10:16;;;;;;;;;11.00;10.00;;;;;16.04;67.36;101500.28;4914605;28;45538;-87
2021/09/13 05:12:41;;;;;;;;;11.50;10.75;;;;;16.00;67.47;101502.19;4922474;28;45223;-85
2021/09/13 05:15:07;;;;;;;;;8.25;8.25;;;;;16.00;67.73;101501.34;4922004;28;45472;-85
2021/09/13 05:17:32;;;;;;;;;12.25;10.00;;;;;16.02;67.70;101505.66;4918885;28;46042;-82
2021/09/13 05:19:58;;;;;;;;;11.00;9.75;;;;;16.01;67.98;101503.94;4910528;28;45597;-86
2021/09/13 05:22:23;;;;;;;;;11.25;10.00;;;;;15.98;67.75;101499.63;4921883;28;45255;-86
2021/09/13 05:24:49;;;;;;;;;10.50;10.50;;;;;15.97;67.78;101503.22;4922113;28;45513;-88
2021/09/13 05:27:14;;;;;;;;;10.50;10.00;;;;;15.98;67.86;101504.06;4903854;28;48134;-88
2021/09/13 05:29:40;;;;;;;;;9.50;9.50;;;;;15.97;67.69;101497.91;4915500;28;45251;-87
2021/09/13 05:32:05;;;;;;;;;13.50;10.00;;;;;15.94;68.00;101495.41;4917619;28;45307;-87
2021/09/13 05:34:31;;;;;;;;;9.75;9.75;;;;;15.98;68.01;101499.63;4922063;28;45521;-87
2021/09/13 05:36:56;;;;;;;;;9.25;9.00;;;;;15.94;68.00;101502.47;4919266;28;46461;-87
2021/09/13 05:39:22;;;;;;;;;10.00;9.25;;;;;15.95;68.05;101505.06;4918230;28;45304;-88
2021/09/13 05:41:48;;;;;;;;;14.00;11.75;;;;;15.97;68.10;101507.66;4916698;28;45360;-87
2021/09/13 05:44:13;;;;;;;;;10.50;10.00;;;;;15.95;68.20;101504.22;4918784;28;45446;-87
2021/09/13 05:46:39;;;;;;;;;11.50;10.75;;;;;15.94;67.78;101498.03;4921988;28;46260;-87
2021/09/13 05:49:09;;;;;;;;;11.50;9.75;;;;;15.95;67.95;101499.75;4918796;28;45236;-87
2021/09/13 05:51:38;;;;;;;;;10.00;9.25;;;;;16.00;68.24;101501.34;4913581;28;45308;-87
2021/09/13 05:54:03;;;;;;;;;11.00;9.00;;;;;16.00;67.96;101491.59;4913796;28;45516;-87
2021/09/13 05:56:28;;;;;;;;;10.75;10.25;;;;;16.01;68.49;101492.47;4910349;28;45265;-87
2021/09/13 05:58:54;;;;;;;;;8.50;8.25;;;;;16.06;67.88;101495.81;4921721;28;45146;-87
2021/09/13 06:01:19;;;;;;;;;9.50;9.50;;;;;16.09;68.18;101500.97;4908897;28;45174;-87
2021/09/13 06:03:44;;;;;;;;;11.50;9.75;;;;;16.07;68.14;101501.06;4900574;29;45815;-85
2021/09/13 06:06:10;;;;;;;;;10.50;7.75;;;;;16.10;67.33;101496.53;4909538;28;46424;-88
2021/09/13 06:08:35;;;;;;;;;8.75;8.50;;;;;16.14;67.69;101499.00;4915765;28;45216;-87
2021/09/13 06:11:01;;;;;;;;;10.00;8.00;;;;;16.23;68.02;101502.13;4891108;28;45547;-87
2021/09/13 06:13:26;;;;;;;;;9.75;9.25;;;;;16.28;68.01;101503.66;4911046;28;45845;-88
2021/09/13 06:15:52;;;;;;;;;11.75;11.75;;;;;16.34;67.46;101499.88;4921318;28;45289;-88
2021/09/13 06:18:17;;;;;;;;;8.25;8.25;;;;;16.39;67.05;101508.50;4903383;28;45342;-88
2021/09/13 06:20:42;;;;;;;;;11.00;10.25;;;;;16.43;67.03;101509.19;4913539;28;45443;-87
2021/09/13 06:23:08;;;;;;;;;11.50;10.50;;;;;16.46;67.11;101510.84;4910024;28;45485;-88
2021/09/13 06:25:33;;;;;;;;;12.25;11.25;;;;;16.49;66.89;101508.94;4915337;28;45435;-88
2021/09/13 06:27:59;;;;;;;;;13.50;11.75;;;;;16.53;66.48;101507.00;4919258;28;45477;-88
2021/09/13 06:30:24;;;;;;;;;13.50;12.50;;;;;16.57;66.70;101513.88;4915337;28;45483;-88
2021/09/13 06:32:49;;;;;;;;;9.00;8.25;;;;;16.65;67.27;101511.72;4909354;28;45456;-88
2021/09/13 06:35:15;;;;;;;;;11.25;10.75;;;;;16.63;65.92;101504.78;4912553;28;46800;-87
2021/09/13 06:37:40;;;;;;;;;12.25;9.75;;;;;16.67;66.35;101510.81;4896757;28;45545;-87
2021/09/13 06:40:06;;;;;;;;;9.25;7.25;;;;;16.69;66.24;101508.94;4893705;28;46634;-87
2021/09/13 06:42:32;;;;;;;;;12.75;12.00;;;;;16.72;66.01;101517.59;4916349;28;45998;-87
2021/09/13 06:44:58;;;;;;;;;15.50;12.75;;;;;16.75;66.58;101512.16;4913376;28;46076;-88
2021/09/13 06:49:56;;;;;;;;;11.50;9.50;;;;;16.87;66.25;101517.81;4908402;28;45344;-84
2021/09/13 06:52:22;;;;;;;;;11.25;10.50;;;;;16.99;65.96;101521.66;4906391;28;45499;-83
2021/09/13 06:54:47;;;;;;;;;12.25;11.50;;;;;17.05;65.92;101521.41;4921484;28;46424;-84
2021/09/13 06:57:13;;;;;;;;;13.00;12.00;;;;;17.07;65.20;101522.19;4895990;28;45352;-84
2021/09/13 06:59:40;;;;;;;;;12.25;10.50;;;;;17.17;65.06;101529.72;4898570;28;45272;-84
2021/09/13 07:02:07;;;;;;;;;15.25;12.25;;;;;17.21;65.25;101529.50;4911227;28;46665;-83
2021/09/13 07:04:33;;;;;;;;;13.50;12.75;;;;;17.23;65.18;101526.78;4920421;28;46687;-83
2021/09/13 07:06:58;;;;;;;;;14.75;13.00;;;;;17.25;65.07;101530.22;4921400;28;45268;-84
2021/09/13 07:09:23;;;;;;;;;10.25;9.25;;;;;17.26;64.82;101518.66;4914629;28;45342;-84
2021/09/13 07:11:49;;;;;;;;;12.75;12.75;;;;;17.34;65.00;101528.03;4915580;28;45423;-84
2021/09/13 07:14:14;;;;;;;;;14.25;10.25;;;;;17.35;64.92;101519.13;4913901;28;46169;-84
2021/09/13 07:16:40;;;;;;;;;14.00;12.25;;;;;17.46;65.08;101523.94;4923186;28;45445;-84
2021/09/13 07:19:05;;;;;;;;;13.50;11.50;;;;;17.54;65.05;101516.41;4920955;28;45409;-83
2021/09/13 07:21:32;;;;;;;;;12.75;12.50;;;;;17.63;64.42;101513.28;4917869;28;45538;-83
2021/09/13 07:23:58;;;;;;;;;15.25;11.75;;;;;17.68;64.23;101513.06;4895595;29;47148;-84
2021/09/13 07:26:23;;;;;;;;;14.25;12.75;;;;;17.75;64.12;101509.13;4903197;28;46726;-82
2021/09/13 07:28:49;;;;;;;;;11.50;9.50;;;;;17.83;63.79;101511.41;4917873;28;45442;-83
2021/09/13 07:31:14;;;;;;;;;14.25;13.75;;;;;17.87;64.07;101506.81;4923801;28;45280;-83
2021/09/13 07:33:39;;;;;;;;;14.50;7.25;;;;;17.93;63.72;101506.47;4923517;28;45258;-83
2021/09/13 07:36:05;;;;;;;;;26.25;20.25;;;;;18.03;63.69;101505.97;4923918;28;45283;-84
2021/09/13 07:38:30;;;;;;;;;17.50;13.75;;;;;18.05;63.46;101494.31;4923127;28;45877;-83
2021/09/13 07:40:56;;;;;;;;;9.75;9.75;;;;;18.09;63.33;101501.22;4921512;28;45380;-83
2021/09/13 07:43:21;;;;;;;;;11.75;10.50;;;;;18.16;63.79;101499.09;4923184;28;45422;-84
2021/09/13 07:45:47;;;;;;;;;14.25;13.00;;;;;18.24;63.09;101501.38;4923208;28;45291;-84
2021/09/13 07:48:12;;;;;;;;;15.00;12.25;;;;;18.22;63.28;101495.28;4922745;28;45428;-84
2021/09/13 07:50:38;;;;;;;;;18.00;13.50;;;;;18.27;62.79;101501.19;4903163;28;45538;-83
2021/09/13 07:53:04;;;;;;;;;15.75;12.75;;;;;18.33;63.05;101502.66;4921805;28;46415;-83
2021/09/13 07:55:29;;;;;;;;;14.75;13.75;;;;;18.40;62.09;101508.50;4918617;28;45811;-84
2021/09/13 07:57:55;;;;;;;;;12.00;11.00;;;;;18.36;61.90;101497.19;4920665;28;45434;-84
2021/09/13 08:00:20;;;;;;;;;15.75;11.00;;;;;18.36;62.40;101494.53;4913555;28;45598;-84
2021/09/13 08:02:46;;;;;;;;;10.25;9.50;;;;;18.38;61.93;101489.97;4915128;28;46138;-83
2021/09/13 08:05:11;;;;;;;;;15.25;12.25;;;;;18.45;62.29;101482.50;4896961;28;45380;-84
2021/09/13 08:07:37;;;;;;;;;10.50;10.25;;;;;18.54;62.38;101494.47;4922964;28;45395;-83
2021/09/13 08:10:03;;;;;;;;;11.25;9.50;;;;;18.59;62.55;101487.09;4923304;28;45473;-83
2021/09/13 08:12:28;;;;;;;;;11.50;11.50;;;;;18.66;62.29;101483.16;4917954;28;46330;-83
2021/09/13 08:14:54;;;;;;;;;9.75;9.00;;;;;18.74;62.14;101473.88;4905684;28;45553;-83
2021/09/13 08:17:19;;;;;;;;;10.00;9.75;;;;;18.91;62.03;101488.03;4922398;28;46036;-83
2021/09/13 08:19:45;;;;;;;;;16.25;15.25;;;;;18.91;61.54;101474.72;4922464;28;45223;-83
2021/09/13 08:22:11;;;;;;;;;9.50;9.00;;;;;18.98;61.48;101474.28;4920397;28;46153;-83
2021/09/13 08:24:37;;;;;;;;;10.25;8.25;;;;;19.11;61.38;101487.72;4923107;28;45288;-82
2021/09/13 08:27:04;;;;;;;;;9.75;9.50;;;;;19.15;60.88;101488.44;4903489;28;45418;-83
2021/09/13 08:29:29;;;;;;;;;9.25;8.50;;;;;19.16;60.81;101483.97;4912526;28;45767;-84
2021/09/13 08:31:56;;;;;;;;;7.50;7.50;;;;;19.22;61.43;101480.97;4912639;28;47058;-84
2021/09/13 08:34:22;;;;;;;;;8.25;8.25;;;;;19.30;61.22;101469.84;4923128;28;45370;-84
2021/09/13 08:36:48;;;;;;;;;9.50;9.50;;;;;19.38;60.57;101464.94;4919343;28;45483;-84
2021/09/13 08:39:14;;;;;;;;;8.75;8.75;;;;;19.38;60.67;101462.28;4922259;28;45398;-84
2021/09/13 08:41:43;;;;;;;;;11.50;9.75;;;;;19.44;60.40;101466.38;4917771;28;48179;-83
2021/09/13 08:44:13;;;;;;;;;9.00;7.75;;;;;19.53;59.87;101471.16;4922346;28;45548;-82
2021/09/13 08:49:13;;;;;;;;;8.00;8.00;;;;;19.61;60.23;101468.03;4918582;28;45429;-84
2021/09/13 08:51:39;;;;;;;;;9.00;7.00;;;;;19.65;60.42;101460.72;4921821;28;46450;-84
2021/09/13 08:54:11;;;;;;;;;8.50;7.50;;;;;19.72;60.09;101470.06;4923013;28;45205;-84
2021/09/13 08:56:43;;;;;;;;;9.25;6.50;;;;;19.78;59.74;101475.00;4919699;28;45357;-84
2021/09/13 08:59:16;;;;;;;;;7.25;7.25;;;;;19.85;59.55;101485.31;4922105;28;45397;-84
2021/09/13 09:01:43;;;;;;;;;9.50;7.25;;;;;19.89;59.46;101489.50;4922046;28;46460;-84
2021/09/13 09:04:12;;;;;;;;;6.75;6.75;;;;;19.91;59.13;101492.94;4911620;28;45704;-84
2021/09/13 09:06:41;;;;;;;;;2.25;2.25;;;;;19.94;58.92;101494.56;4909635;28;45292;-83
2021/09/13 09:09:12;;;;;;;;;8.50;6.75;;;;;19.97;59.29;101497.03;4915007;28;45420;-83
2021/09/13 09:12:02;;;;;;;;;8.00;6.75;;;;;20.04;59.50;101505.53;4910850;28;47266;-84
2021/09/13 09:14:44;;;;;;;;;6.75;5.75;;;;;20.02;59.21;101487.81;4892165;28;45691;-89
2021/09/13 09:17:13;;;;;;;;;8.50;7.50;;;;;20.09;58.82;101490.97;4917579;28;45391;-89
2021/09/13 09:19:40;;;;;;;;;9.25;8.00;;;;;20.12;58.87;101500.63;4892352;28;45752;-94
2021/09/13 09:22:26;;;;;;;;;9.50;9.00;;;;;20.14;59.03;101490.69;4932192;28;46391;-92
2021/09/13 09:24:53;;;;;;;;;5.75;5.75;;;;;20.19;58.96;101488.59;4921892;28;45275;-84
2021/09/13 09:27:19;;;;;;;;;8.50;7.50;;;;;20.22;58.74;101491.06;4920904;28;45408;-84
2021/09/13 09:29:44;;;;;;;;;7.50;7.50;;;;;20.29;58.77;101486.22;4912581;28;45276;-84
2021/09/13 09:32:24;;;;;;;;;9.00;8.00;;;;;20.32;58.76;101474.50;4922014;28;46114;-83
2021/09/13 09:34:51;;;;;;;;;7.25;7.25;;;;;20.37;58.67;101479.53;4921497;28;45456;-84
2021/09/13 09:37:18;;;;;;;;;9.50;7.50;;;;;20.39;58.58;101483.81;4914921;28;45522;-83
2021/09/13 09:39:44;;;;;;;;;8.00;8.00;;;;;20.46;58.30;101482.47;4908519;28;45517;-83
2021/09/13 09:42:12;;;;;;;;;7.00;7.00;;;;;20.49;58.62;101475.22;4900738;29;46944;-83
2021/09/13 09:44:42;;;;;;;;;9.00;8.00;;;;;20.52;57.95;101478.53;4901253;28;45428;-83
2021/09/13 09:47:13;;;;;;;;;10.25;9.25;;;;;20.50;57.55;101476.94;4921768;28;45371;-83
2021/09/13 09:49:47;;;;;;;;;8.00;7.00;;;;;20.60;57.57;101483.41;4916156;28;45243;-82
2021/09/13 09:52:26;;;;;;;;;9.00;7.50;;;;;20.64;58.01;101481.41;4913600;28;45550;-82
2021/09/13 09:55:05;;;;;;;;;7.00;6.00;;;;;20.64;57.92;101473.38;4914333;28;45334;-82
2021/09/13 09:57:31;;;;;;;;;8.00;7.25;;;;;20.65;57.89;101467.94;4911243;28;45331;-82
2021/09/13 09:59:56;;;;;;;;;9.75;6.50;;;;;20.71;57.63;101465.84;4935724;28;45861;-82
2021/09/13 10:02:21;;;;;;;;;8.00;7.25;;;;;20.72;57.68;101451.53;4935932;28;46922;-82
2021/09/13 10:04:55;;;;;;;;;6.25;6.25;;;;;20.73;57.25;101443.41;4913804;28;45595;-82
2021/09/13 10:07:21;;;;;;;;;7.75;7.25;;;;;20.76;57.42;101442.34;4932788;28;45420;-82
2021/09/13 10:09:48;;;;;;;;;6.75;6.75;;;;;20.83;57.06;101442.81;4908355;28;45278;-80
2021/09/13 10:12:14;;;;;;;;;9.50;7.25;;;;;20.85;57.21;101435.53;4920772;28;45322;-80
2021/09/13 10:14:40;;;;;;;;;7.50;6.50;;;;;20.96;57.24;101442.84;4916969;28;45627;-80
2021/09/13 10:17:07;;;;;;;;;7.25;7.25;;;;;20.97;57.71;101425.84;4923158;28;45439;-80
2021/09/13 10:19:33;;;;;;;;;7.25;6.25;;;;;21.03;57.80;101433.50;4924411;28;45493;-80
2021/09/13 10:21:59;;;;;;;;;9.00;8.25;;;;;21.07;56.15;101424.31;4924586;28;45535;-80
2021/09/13 10:24:31;;;;;;;;;7.25;5.75;;;;;21.09;55.75;101422.38;4922518;28;45281;-80
2021/09/13 10:27:06;;;;;;;;;8.00;7.00;;;;;21.22;56.81;101441.13;4912560;28;45731;-79
2021/09/13 10:29:31;;;;;;;;;9.00;7.00;;;;;21.22;56.64;101418.88;4916787;28;45538;-80
2021/09/13 10:32:06;;;;;;;;;7.50;6.50;;;;;21.27;56.33;101413.22;4922872;28;45392;-80
2021/09/13 10:34:34;;;;;;;;;9.00;7.00;;;;;21.32;55.31;101414.63;4912043;28;45286;-80
2021/09/13 10:37:08;;;;;;;;;3.50;3.50;;;;;21.38;56.28;101412.50;4917110;28;45313;-80
2021/09/13 10:39:53;;;;;;;;;6.00;6.00;;;;;21.33;56.15;101405.66;4918685;28;45502;-80
2021/09/13 10:42:37;;;;;;;;;5.00;4.75;;;;;21.44;56.04;101415.59;4904952;28;45656;-80
2021/09/13 10:45:08;;;;;;;;;5.25;5.25;;;;;21.47;56.41;101409.19;4915259;28;45501;-80
2021/09/13 10:47:34;;;;;;;;;8.50;6.00;;;;;21.48;55.69;101403.72;4921847;28;45224;-82
2021/09/13 10:50:34;;;;;;;;;5.00;5.00;;;;;21.52;56.01;101406.19;4924469;28;45524;-80
2021/09/13 10:53:02;;;;;;;;;6.00;6.00;;;;;21.52;56.28;101401.69;4910803;28;45659;-80
2021/09/13 10:55:37;;;;;;;;;6.25;6.25;;;;;21.53;55.65;101382.00;4917085;28;45222;-80
2021/09/13 10:58:16;;;;;;;;;3.25;3.00;;;;;21.62;56.22;101391.22;4911547;28;45316;-80
2021/09/13 11:00:44;;;;;;;;;7.25;7.00;;;;;21.72;55.60;101398.59;4923975;28;45374;-80
2021/09/13 11:03:22;;;;;;;;;6.00;6.00;;;;;21.78;55.95;101396.34;4923479;28;45287;-80
2021/09/13 11:06:13;;;;;;;;;5.50;5.50;;;;;21.81;55.87;101396.13;4908284;28;45624;-80
2021/09/13 11:08:55;;;;;;;;;6.50;6.50;;;;;21.84;55.21;101392.38;4922967;28;45478;-80
2021/09/13 11:11:20;;;;;;;;;7.00;5.25;;;;;21.89;55.20;101384.03;4915808;28;47240;-80
2021/09/13 11:13:48;;;;;;;;;6.50;6.50;;;;;21.92;55.17;101386.50;4921772;28;45314;-80
2021/09/13 11:16:17;;;;;;;;;7.50;7.25;;;;;21.92;54.99;101373.13;4922410;28;45838;-80
2021/09/13 11:18:45;;;;;;;;;7.50;6.00;;;;;22.01;55.57;101367.13;4901079;28;45423;-80
2021/09/13 11:21:31;;;;;;;;;6.00;6.00;;;;;22.04;55.26;101366.03;4917580;28;45270;-81
2021/09/13 11:23:56;;;;;;;;;5.00;4.50;;;;;22.15;55.01;101375.94;4923296;28;46187;-81
2021/09/13 11:26:32;;;;;;;;;8.00;6.75;;;;;22.20;54.95;101368.44;4922235;28;45437;-81
2021/09/13 11:28:57;;;;;;;;;5.50;5.50;;;;;22.21;55.54;101369.31;4920048;28;45467;-81
2021/09/13 11:31:42;;;;;;;;;7.75;6.25;;;;;22.17;55.21;101352.63;4916918;28;45307;-81